Time;durP1;ratioP1;P1;durP2;ratioP2;P2;SDS_P1;SDS_P2;PMS_P1;PMS_P2;Temp;Humidity;BMP_temperature;BMP_pressure;BME280_temperature;BME280_humidity;BME280_pressure;Samples;Min_cycle;Max_cycle;Signal;HPM_P1;HPM_P2
2022/07/17 00:00:24;;;;;;;3.60;3.00;;;24.50;54.30;;;;;;4991162;28;20742;-66
2022/07/17 00:02:50;;;;;;;3.65;3.30;;;24.50;54.20;;;;;;5007546;28;20486;-66
2022/07/17 00:05:17;;;;;;;3.47;3.10;;;24.60;54.30;;;;;;4992469;28;20487;-66
2022/07/17 00:07:42;;;;;;;3.75;3.25;;;24.50;54.20;;;;;;4992082;28;20395;-66
2022/07/17 00:10:09;;;;;;;3.40;3.10;;;24.60;54.30;;;;;;4990810;28;20449;-66
2022/07/17 00:12:35;;;;;;;3.20;2.90;;;24.50;54.40;;;;;;4992303;28;20437;-66
2022/07/17 00:15:01;;;;;;;3.53;3.10;;;24.50;54.20;;;;;;4992191;28;20394;-66
2022/07/17 00:17:26;;;;;;;3.30;3.00;;;24.50;54.30;;;;;;4992169;28;20930;-66
2022/07/17 00:19:52;;;;;;;3.35;3.03;;;24.50;54.30;;;;;;4991805;28;20489;-66
2022/07/17 00:22:20;;;;;;;3.80;3.40;;;24.50;54.30;;;;;;4991916;28;20460;-66
2022/07/17 00:24:46;;;;;;;3.42;3.10;;;24.50;54.20;;;;;;4992318;28;20800;-66
2022/07/17 00:27:11;;;;;;;4.00;3.10;;;24.50;54.40;;;;;;5007390;28;20421;-67
2022/07/17 00:29:37;;;;;;;3.53;3.23;;;24.50;54.30;;;;;;4992075;28;20437;-66
2022/07/17 00:32:03;;;;;;;3.85;2.90;;;24.50;54.40;;;;;;4991771;28;20414;-66
2022/07/17 00:34:28;;;;;;;3.50;2.78;;;24.50;54.30;;;;;;4992052;28;20426;-67
2022/07/17 00:36:54;;;;;;;3.25;2.95;;;24.50;54.20;;;;;;4992213;28;20449;-67
2022/07/17 00:39:20;;;;;;;3.67;2.80;;;24.50;54.40;;;;;;4991979;28;20395;-66
2022/07/17 00:41:45;;;;;;;3.00;2.70;;;24.50;54.40;;;;;;4991875;28;20906;-66
2022/07/17 00:44:14;;;;;;;3.03;2.72;;;24.40;54.30;;;;;;4990551;28;20861;-67
2022/07/17 00:46:40;;;;;;;3.28;2.92;;;24.40;54.20;;;;;;4991812;28;20414;-67
2022/07/17 00:49:07;;;;;;;3.08;2.78;;;24.50;54.60;;;;;;4990843;28;20513;-66
2022/07/17 00:51:35;;;;;;;3.20;2.88;;;24.40;54.30;;;;;;4989974;28;20493;-66
2022/07/17 00:54:03;;;;;;;3.17;2.80;;;24.40;54.30;;;;;;4991524;28;20398;-66
2022/07/17 00:56:28;;;;;;;3.10;2.80;;;24.40;54.30;;;;;;4992105;28;20809;-66
2022/07/17 00:58:55;;;;;;;3.28;2.83;;;24.40;54.30;;;;;;4995765;28;20395;-66
2022/07/17 01:01:21;;;;;;;3.40;3.10;;;24.40;54.20;;;;;;4994513;28;20398;-65
2022/07/17 01:03:47;;;;;;;3.75;3.30;;;24.40;54.20;;;;;;4995533;28;20390;-66
2022/07/17 01:06:13;;;;;;;3.08;2.63;;;24.40;54.10;;;;;;4994548;28;20399;-66
2022/07/17 01:08:39;;;;;;;3.10;2.80;;;24.40;54.20;;;;;;4995546;28;20468;-66
2022/07/17 01:11:08;;;;;;;3.10;2.80;;;24.40;54.30;;;;;;4994487;28;20394;-66
2022/07/17 01:13:33;;;;;;;3.20;2.90;;;24.40;54.20;;;;;;4995676;28;20416;-66
2022/07/17 01:15:59;;;;;;;3.13;2.90;;;24.40;54.10;;;;;;4995198;28;20401;-66
2022/07/17 01:18:25;;;;;;;3.38;3.08;;;24.40;54.30;;;;;;4994003;28;20457;-66
2022/07/17 01:20:51;;;;;;;3.17;2.90;;;24.40;54.20;;;;;;4995383;28;20482;-67
2022/07/17 01:23:19;;;;;;;3.50;3.17;;;24.40;54.20;;;;;;4995443;28;20437;-65
2022/07/17 01:25:45;;;;;;;3.38;3.08;;;24.40;54.20;;;;;;4995287;28;20437;-66
2022/07/17 01:28:12;;;;;;;3.30;3.00;;;24.40;54.10;;;;;;4995159;28;20434;-67
2022/07/17 01:30:45;;;;;;;3.22;2.92;;;24.30;54.20;;;;;;5010096;28;20796;-66
2022/07/17 01:33:11;;;;;;;3.58;2.95;;;24.30;54.10;;;;;;4995354;28;20472;-66
2022/07/17 01:35:37;;;;;;;3.05;2.78;;;24.40;54.10;;;;;;4993941;28;20894;-66
2022/07/17 01:38:03;;;;;;;3.22;2.92;;;24.40;54.20;;;;;;4994904;28;20765;-67
2022/07/17 01:40:29;;;;;;;3.20;2.90;;;24.40;54.20;;;;;;4995138;28;20493;-66
2022/07/17 01:42:55;;;;;;;3.13;2.83;;;24.30;54.20;;;;;;4995134;28;20474;-66
2022/07/17 01:45:23;;;;;;;3.00;2.72;;;24.30;54.20;;;;;;4994784;28;20557;-67
2022/07/17 01:47:49;;;;;;;3.30;2.78;;;24.30;54.20;;;;;;4994933;28;20382;-66
2022/07/17 01:50:15;;;;;;;3.20;2.90;;;24.30;54.10;;;;;;4994622;28;20927;-66
2022/07/17 01:52:43;;;;;;;3.22;2.92;;;24.30;54.10;;;;;;4994894;28;20390;-66
2022/07/17 01:55:11;;;;;;;3.65;3.20;;;24.30;54.10;;;;;;4994876;28;20391;-67
2022/07/17 01:57:37;;;;;;;3.20;2.90;;;24.30;54.10;;;;;;4993521;28;20845;-66
2022/07/17 02:00:10;;;;;;;3.03;2.77;;;24.30;54.10;;;;;;4993264;28;20391;-66
2022/07/17 02:02:35;;;;;;;3.15;2.90;;;24.30;54.10;;;;;;4994581;28;20394;-66
2022/07/17 02:05:02;;;;;;;3.10;2.80;;;24.30;54.10;;;;;;4994730;28;20722;-66
2022/07/17 02:07:27;;;;;;;3.13;2.80;;;24.30;54.10;;;;;;4994396;28;20461;-66
2022/07/17 02:09:53;;;;;;;3.05;2.72;;;24.30;54.20;;;;;;4993822;28;20430;-66
2022/07/17 02:12:19;;;;;;;3.22;2.75;;;24.30;54.10;;;;;;4994430;28;20394;-66
2022/07/17 02:14:44;;;;;;;3.37;2.90;;;24.30;54.20;;;;;;4994520;28;20413;-66
2022/07/17 02:17:10;;;;;;;3.00;2.70;;;24.30;54.10;;;;;;4994507;28;20401;-66
2022/07/17 02:19:37;;;;;;;3.13;2.83;;;24.30;54.10;;;;;;4994383;28;20433;-66
2022/07/17 02:22:02;;;;;;;2.90;2.60;;;24.30;54.00;;;;;;4993941;28;20455;-66
2022/07/17 02:24:28;;;;;;;3.25;2.85;;;24.30;54.00;;;;;;4994320;28;20434;-66
2022/07/17 02:26:54;;;;;;;3.20;2.67;;;24.20;53.90;;;;;;4994368;28;20390;-66
2022/07/17 02:29:19;;;;;;;3.03;2.72;;;24.30;54.00;;;;;;4994065;28;20425;-66
2022/07/17 02:31:45;;;;;;;2.80;2.50;;;24.20;54.00;;;;;;4994196;28;20892;-66
2022/07/17 02:34:11;;;;;;;3.10;2.80;;;24.20;54.00;;;;;;4994037;28;20430;-66
2022/07/17 02:36:36;;;;;;;3.60;2.90;;;24.30;54.10;;;;;;4994103;28;20409;-66
2022/07/17 02:39:03;;;;;;;2.90;2.50;;;24.20;54.00;;;;;;4993907;28;20398;-66
2022/07/17 02:41:28;;;;;;;3.33;2.60;;;24.20;53.90;;;;;;4994022;28;20398;-66
2022/07/17 02:43:54;;;;;;;3.00;2.70;;;24.20;53.90;;;;;;4992043;28;20403;-66
2022/07/17 02:46:19;;;;;;;2.65;2.40;;;24.20;53.90;;;;;;4993707;28;20469;-66
2022/07/17 02:48:45;;;;;;;3.00;2.70;;;24.20;54.10;;;;;;4993868;28;20406;-66
2022/07/17 02:51:11;;;;;;;3.17;2.42;;;24.20;54.00;;;;;;4993876;28;20434;-66
2022/07/17 02:53:36;;;;;;;2.67;2.47;;;24.20;54.00;;;;;;4993803;28;20469;-65
2022/07/17 02:56:02;;;;;;;3.30;3.03;;;24.20;53.90;;;;;;4993134;28;20418;-66
2022/07/17 02:58:28;;;;;;;3.20;2.70;;;24.20;53.90;;;;;;4993390;28;20472;-66
2022/07/17 03:00:53;;;;;;;3.10;2.80;;;24.20;53.80;;;;;;4993489;28;20411;-66
2022/07/17 03:03:22;;;;;;;2.60;2.40;;;24.20;53.80;;;;;;4993574;28;20397;-66
2022/07/17 03:05:48;;;;;;;2.92;2.63;;;24.20;53.80;;;;;;4993341;28;20406;-66
2022/07/17 03:08:13;;;;;;;3.60;2.57;;;24.20;54.30;;;;;;4993327;28;20406;-66
2022/07/17 03:10:40;;;;;;;4.00;2.83;;;24.20;54.90;;;;;;4993322;28;20454;-66
2022/07/17 03:13:06;;;;;;;3.40;3.00;;;24.20;55.10;;;;;;4993392;28;20490;-66
2022/07/17 03:15:32;;;;;;;4.23;3.00;;;24.20;56.60;;;;;;5008454;28;20486;-66
2022/07/17 03:17:58;;;;;;;3.58;2.70;;;24.30;56.30;;;;;;4991562;28;20474;-66
2022/07/17 03:20:23;;;;;;;4.13;3.20;;;24.30;57.30;;;;;;4991314;28;20403;-66
2022/07/17 03:22:49;;;;;;;5.50;3.10;;;24.30;56.90;;;;;;4992035;28;20424;-67
2022/07/17 03:27:43;;;;;;;4.57;3.00;;;24.40;57.50;;;;;;4991680;28;20442;-67
2022/07/17 03:30:09;;;;;;;4.25;2.95;;;24.40;57.80;;;;;;4992391;28;20449;-66
2022/07/17 03:32:34;;;;;;;4.87;2.80;;;24.50;57.70;;;;;;4991376;28;20505;-66
2022/07/17 03:35:01;;;;;;;4.97;3.00;;;24.50;57.70;;;;;;4991454;28;20948;-69
2022/07/17 03:37:28;;;;;;;4.53;2.88;;;24.50;57.60;;;;;;4991163;28;20403;-66
2022/07/17 03:39:54;;;;;;;5.60;3.25;;;24.50;57.80;;;;;;4992688;28;20395;-66
2022/07/17 03:42:19;;;;;;;5.73;3.03;;;24.50;58.30;;;;;;4992565;28;20560;-67
2022/07/17 03:44:45;;;;;;;4.10;2.72;;;24.50;57.30;;;;;;4992811;28;20429;-66
2022/07/17 03:47:10;;;;;;;5.13;2.90;;;24.50;57.90;;;;;;4992627;28;20379;-66
2022/07/17 03:49:36;;;;;;;3.63;2.70;;;24.50;57.60;;;;;;4992756;28;20972;-66
2022/07/17 03:52:02;;;;;;;5.18;2.65;;;24.50;57.70;;;;;;4992149;28;20868;-66
2022/07/17 03:54:27;;;;;;;5.68;3.10;;;24.50;57.30;;;;;;4992003;28;20757;-66
2022/07/17 03:56:53;;;;;;;4.83;2.73;;;24.40;56.60;;;;;;4991215;28;20915;-66
2022/07/17 03:59:18;;;;;;;3.42;2.65;;;24.40;56.60;;;;;;4991188;28;20769;-66
2022/07/17 04:01:44;;;;;;;3.70;2.50;;;24.40;56.70;;;;;;4992069;28;20761;-67
2022/07/17 04:04:10;;;;;;;6.53;2.87;;;24.40;56.10;;;;;;4990470;28;20398;-66
2022/07/17 04:06:35;;;;;;;5.70;3.03;;;24.30;56.00;;;;;;4992276;28;20393;-66
2022/07/17 04:09:01;;;;;;;5.22;2.70;;;24.40;56.10;;;;;;4991703;28;20413;-66
2022/07/17 04:11:27;;;;;;;5.65;2.72;;;24.30;55.40;;;;;;4992584;28;20403;-66
2022/07/17 04:13:53;;;;;;;7.30;2.97;;;24.30;55.30;;;;;;4991917;28;20382;-66
2022/07/17 04:16:18;;;;;;;7.03;3.10;;;24.30;53.20;;;;;;4991582;28;20402;-66
2022/07/17 04:18:44;;;;;;;4.67;2.97;;;24.20;53.30;;;;;;4992156;28;20430;-66
2022/07/17 04:21:10;;;;;;;5.47;2.72;;;24.20;52.60;;;;;;4991751;28;20436;-67
2022/07/17 04:23:37;;;;;;;4.90;2.72;;;24.20;52.30;;;;;;4991839;28;20386;-66
2022/07/17 04:26:06;;;;;;;4.80;2.90;;;24.10;52.60;;;;;;4991244;28;20433;-66
2022/07/17 04:28:32;;;;;;;6.80;3.20;;;24.10;52.60;;;;;;4991825;28;20406;-65
2022/07/17 04:30:57;;;;;;;4.40;3.10;;;24.10;51.90;;;;;;4991876;28;20433;-66
2022/07/17 04:33:23;;;;;;;5.03;3.17;;;24.00;51.40;;;;;;4992087;28;20419;-66
2022/07/17 04:35:49;;;;;;;4.50;2.97;;;24.00;51.60;;;;;;4991757;28;20880;-65
2022/07/17 04:38:15;;;;;;;5.40;3.20;;;24.00;51.80;;;;;;4990825;28;20390;-66
2022/07/17 04:40:42;;;;;;;6.53;3.20;;;24.00;52.00;;;;;;4991776;28;20477;-66
2022/07/17 04:43:07;;;;;;;3.50;2.78;;;24.00;52.00;;;;;;4991844;28;20426;-65
2022/07/17 04:45:33;;;;;;;5.17;3.40;;;24.00;52.00;;;;;;4991705;28;20491;-65
2022/07/17 04:47:59;;;;;;;3.92;3.20;;;24.00;52.40;;;;;;4991351;28;20763;-65
2022/07/17 04:50:25;;;;;;;4.03;3.00;;;24.00;52.50;;;;;;4991169;28;20536;-65
2022/07/17 04:52:51;;;;;;;3.95;3.00;;;24.00;52.70;;;;;;4991765;28;20478;-66
2022/07/17 04:55:17;;;;;;;4.90;2.90;;;24.00;52.70;;;;;;4988794;28;20415;-68
2022/07/17 04:57:43;;;;;;;3.97;2.80;;;24.00;52.80;;;;;;4974663;28;20393;-65
2022/07/17 05:00:09;;;;;;;5.05;2.72;;;24.00;52.90;;;;;;4971366;28;20810;-66
2022/07/17 05:02:35;;;;;;;5.05;2.80;;;24.00;52.90;;;;;;4971977;28;20400;-65
2022/07/17 05:05:02;;;;;;;3.97;2.70;;;24.00;53.00;;;;;;4976724;28;21063;-65
2022/07/17 05:07:28;;;;;;;3.80;2.90;;;24.00;53.30;;;;;;4989921;28;20410;-65
2022/07/17 05:09:54;;;;;;;4.60;3.08;;;24.10;53.60;;;;;;4989111;28;20430;-65
2022/07/17 05:12:19;;;;;;;4.23;3.20;;;24.10;54.10;;;;;;4989634;28;20450;-65
2022/07/17 05:14:45;;;;;;;5.10;2.90;;;24.10;53.70;;;;;;4991305;28;20399;-65
2022/07/17 05:17:11;;;;;;;3.58;2.63;;;24.10;53.90;;;;;;4988948;28;20533;-65
2022/07/17 05:19:37;;;;;;;4.90;3.00;;;24.00;53.50;;;;;;4991551;28;20489;-65
2022/07/17 05:22:04;;;;;;;3.92;2.90;;;24.10;53.50;;;;;;4986855;28;20946;-65
2022/07/17 05:24:29;;;;;;;3.75;2.70;;;24.10;53.20;;;;;;4990664;28;20426;-66
2022/07/17 05:26:55;;;;;;;4.43;2.70;;;24.00;53.10;;;;;;4991299;28;20459;-65
2022/07/17 05:29:21;;;;;;;3.75;2.60;;;24.00;53.30;;;;;;4990018;28;20469;-65
2022/07/17 05:31:47;;;;;;;3.40;2.53;;;24.10;53.80;;;;;;4990088;28;20448;-65
2022/07/17 05:34:12;;;;;;;4.88;2.78;;;24.00;53.40;;;;;;4990588;28;20445;-65
2022/07/17 05:36:38;;;;;;;3.90;2.60;;;24.00;53.90;;;;;;4989914;28;20510;-65
2022/07/17 05:39:04;;;;;;;3.42;2.78;;;24.00;53.90;;;;;;4990012;28;20422;-65
2022/07/17 05:41:30;;;;;;;4.60;2.90;;;24.00;53.70;;;;;;4991142;28;20473;-65
2022/07/17 05:43:55;;;;;;;3.22;2.60;;;24.00;53.60;;;;;;4993870;28;20394;-65
2022/07/17 05:46:21;;;;;;;4.00;2.57;;;24.00;53.40;;;;;;4994407;28;20429;-66
2022/07/17 05:48:47;;;;;;;2.75;2.40;;;24.00;53.50;;;;;;4994643;28;20410;-66
2022/07/17 05:51:13;;;;;;;3.63;2.50;;;24.00;53.80;;;;;;4994698;28;20398;-66
2022/07/17 05:53:38;;;;;;;3.47;2.50;;;24.00;53.90;;;;;;4993497;28;20449;-66
2022/07/17 05:56:04;;;;;;;4.30;2.60;;;24.00;53.90;;;;;;4994438;28;20472;-66
2022/07/17 05:58:30;;;;;;;2.92;2.50;;;24.00;54.10;;;;;;4994246;28;20752;-66
2022/07/17 06:00:55;;;;;;;2.90;2.50;;;24.00;54.00;;;;;;4994514;28;20401;-66
2022/07/17 06:03:21;;;;;;;3.57;2.50;;;24.00;53.90;;;;;;4994453;28;20397;-66
2022/07/17 06:05:47;;;;;;;3.55;2.70;;;24.00;54.10;;;;;;4994630;28;20397;-66
2022/07/17 06:08:13;;;;;;;2.90;2.40;;;24.00;54.10;;;;;;4994001;28;20387;-66
2022/07/17 06:10:39;;;;;;;3.30;2.30;;;24.00;54.20;;;;;;4994474;28;20904;-68
2022/07/17 06:13:05;;;;;;;3.17;2.70;;;24.00;54.20;;;;;;4994108;28;20996;-68
2022/07/17 06:15:34;;;;;;;3.20;2.30;;;24.00;54.30;;;;;;4994559;28;20402;-66
2022/07/17 06:18:01;;;;;;;2.58;2.33;;;24.10;54.40;;;;;;4994687;28;20469;-66
2022/07/17 06:20:26;;;;;;;2.65;2.30;;;24.00;54.40;;;;;;4992939;28;20409;-66
2022/07/17 06:22:52;;;;;;;4.30;2.43;;;24.00;54.40;;;;;;4990557;28;20792;-66
2022/07/17 06:25:17;;;;;;;3.70;2.60;;;24.00;54.40;;;;;;4988530;28;20394;-65
2022/07/17 06:27:43;;;;;;;3.57;2.60;;;24.10;54.40;;;;;;4993788;28;20453;-65
2022/07/17 06:30:11;;;;;;;4.70;2.60;;;24.00;54.30;;;;;;4993584;28;20426;-65
2022/07/17 06:32:37;;;;;;;3.90;2.63;;;24.00;54.30;;;;;;4993965;28;20394;-65
2022/07/17 06:35:03;;;;;;;4.60;2.70;;;24.10;54.40;;;;;;4994076;28;20506;-65
2022/07/17 06:37:29;;;;;;;3.67;2.80;;;24.10;54.40;;;;;;4993630;28;20449;-66
2022/07/17 06:39:55;;;;;;;3.78;2.60;;;24.10;54.40;;;;;;4993895;28;20390;-65
2022/07/17 06:42:20;;;;;;;4.30;2.40;;;24.10;54.40;;;;;;4992112;28;20398;-65
2022/07/17 06:44:46;;;;;;;2.80;2.37;;;24.10;54.30;;;;;;4993700;28;20765;-67
2022/07/17 06:47:11;;;;;;;3.00;2.30;;;24.10;54.40;;;;;;4993931;28;20429;-66
2022/07/17 06:49:37;;;;;;;5.13;2.70;;;24.10;54.40;;;;;;4992371;28;20433;-66
2022/07/17 06:52:03;;;;;;;3.60;2.40;;;24.10;54.30;;;;;;4993492;28;20919;-68
2022/07/17 06:54:29;;;;;;;3.38;2.30;;;24.10;54.40;;;;;;4991984;28;20941;-66
2022/07/17 06:56:54;;;;;;;4.40;2.50;;;24.10;54.40;;;;;;4993480;28;20386;-69
2022/07/17 06:59:21;;;;;;;4.35;2.30;;;24.10;54.40;;;;;;4993427;28;20876;-66
2022/07/17 07:01:47;;;;;;;3.20;2.55;;;24.10;55.00;;;;;;4993952;28;20449;-66
2022/07/17 07:04:13;;;;;;;4.22;2.70;;;24.10;54.40;;;;;;4995670;28;20483;-66
2022/07/17 07:06:39;;;;;;;3.60;2.40;;;24.10;54.30;;;;;;4993106;28;20399;-66
2022/07/17 07:09:05;;;;;;;2.65;2.45;;;24.10;54.30;;;;;;4993196;28;20410;-65
2022/07/17 07:11:31;;;;;;;3.28;2.40;;;24.10;55.00;;;;;;4993224;28;20395;-65
2022/07/17 07:13:57;;;;;;;2.97;2.58;;;24.10;54.30;;;;;;4993312;28;20421;-65
2022/07/17 07:16:22;;;;;;;3.20;2.40;;;24.10;54.40;;;;;;4992668;28;20752;-65
2022/07/17 07:18:48;;;;;;;2.83;2.10;;;24.10;54.50;;;;;;4993194;28;20398;-66
2022/07/17 07:21:14;;;;;;;3.50;2.60;;;24.10;54.50;;;;;;4993038;28;20857;-66
2022/07/17 07:23:40;;;;;;;4.17;2.50;;;24.10;54.70;;;;;;4992890;28;20391;-66
2022/07/17 07:26:06;;;;;;;3.97;2.30;;;24.10;54.50;;;;;;4992622;28;20402;-65
2022/07/17 07:28:33;;;;;;;5.57;2.67;;;24.10;54.50;;;;;;4992340;28;20398;-65
2022/07/17 07:30:58;;;;;;;3.22;2.33;;;24.10;54.60;;;;;;4992767;28;21010;-65
2022/07/17 07:33:24;;;;;;;4.47;2.50;;;24.10;54.60;;;;;;4992699;28;20390;-65
2022/07/17 07:35:50;;;;;;;3.53;2.57;;;24.10;54.60;;;;;;4992897;28;20411;-66
2022/07/17 07:38:16;;;;;;;2.60;2.33;;;24.10;54.60;;;;;;4992425;28;20390;-65
2022/07/17 07:40:42;;;;;;;2.50;2.22;;;24.10;54.70;;;;;;4992554;28;20426;-67
2022/07/17 07:43:07;;;;;;;3.33;2.40;;;24.10;54.70;;;;;;4992698;28;20394;-66
2022/07/17 07:45:34;;;;;;;3.97;2.50;;;24.10;55.30;;;;;;4993008;28;20458;-70
2022/07/17 07:48:00;;;;;;;3.00;2.40;;;24.10;54.80;;;;;;4992720;28;20395;-66
2022/07/17 07:50:28;;;;;;;3.30;2.70;;;24.10;54.80;;;;;;4992060;28;20514;-66
2022/07/17 07:52:53;;;;;;;2.55;2.25;;;24.10;54.80;;;;;;4992407;28;20395;-66
2022/07/17 07:55:21;;;;;;;3.30;2.58;;;24.10;54.80;;;;;;4991593;28;20406;-66
2022/07/17 07:57:47;;;;;;;2.95;2.40;;;24.10;54.80;;;;;;4992856;28;20753;-66
2022/07/17 08:00:13;;;;;;;3.75;2.58;;;24.10;54.80;;;;;;4991952;28;20403;-66
2022/07/17 08:02:39;;;;;;;2.40;2.20;;;24.10;54.80;;;;;;4991144;28;20410;-66
2022/07/17 08:05:05;;;;;;;2.60;2.40;;;24.10;54.90;;;;;;4992298;28;20872;-66
2022/07/17 08:07:31;;;;;;;2.63;2.38;;;24.10;54.80;;;;;;4992149;28;20399;-66
2022/07/17 08:09:58;;;;;;;3.00;2.20;;;24.10;54.80;;;;;;4992210;28;20430;-65
2022/07/17 08:12:23;;;;;;;2.90;2.40;;;24.10;54.80;;;;;;4991757;28;20386;-66
2022/07/17 08:14:50;;;;;;;2.60;2.40;;;24.10;54.80;;;;;;4992051;28;20884;-66
2022/07/17 08:17:16;;;;;;;2.35;2.13;;;24.20;54.90;;;;;;4992159;28;20410;-68
2022/07/17 08:19:41;;;;;;;2.70;2.20;;;24.10;54.80;;;;;;4992132;28;20436;-66
2022/07/17 08:22:07;;;;;;;3.30;2.10;;;24.20;54.80;;;;;;4991947;28;20386;-66
2022/07/17 08:24:33;;;;;;;2.53;2.23;;;24.20;54.90;;;;;;4991752;28;20812;-67
2022/07/17 08:26:58;;;;;;;2.50;2.30;;;24.10;54.80;;;;;;4991008;28;20411;-66
2022/07/17 08:29:24;;;;;;;2.70;2.20;;;24.20;54.90;;;;;;4991361;28;20406;-66
2022/07/17 08:31:50;;;;;;;2.87;2.30;;;24.20;54.90;;;;;;5006483;28;20402;-65
2022/07/17 08:34:16;;;;;;;2.28;2.00;;;24.20;54.90;;;;;;5006065;28;20390;-65
2022/07/17 08:36:42;;;;;;;2.57;2.30;;;24.20;54.90;;;;;;5006444;28;20417;-66
2022/07/17 08:39:08;;;;;;;2.65;2.30;;;24.20;54.90;;;;;;4990343;28;20399;-66
2022/07/17 08:41:37;;;;;;;3.55;2.20;;;24.10;54.80;;;;;;4991565;28;20397;-66
2022/07/17 08:44:18;;;;;;;3.10;2.58;;;24.20;55.00;;;;;;4991823;28;20424;-66
2022/07/17 08:47:05;;;;;;;2.50;2.20;;;24.20;54.90;;;;;;4985289;28;21000;-66
2022/07/17 08:49:33;;;;;;;2.35;2.05;;;24.20;55.00;;;;;;4991233;28;20410;-66
2022/07/17 08:51:59;;;;;;;2.47;2.25;;;24.20;55.00;;;;;;4991686;28;20888;-65
2022/07/17 08:54:24;;;;;;;2.75;2.50;;;24.20;54.90;;;;;;4991232;28;20401;-65
2022/07/17 08:56:50;;;;;;;3.37;2.40;;;24.20;54.90;;;;;;4990919;28;20403;-65
2022/07/17 08:59:15;;;;;;;3.53;2.47;;;24.20;54.80;;;;;;4991710;28;20942;-66
2022/07/17 09:01:41;;;;;;;3.05;2.47;;;24.20;54.90;;;;;;4991649;28;20405;-66
2022/07/17 09:04:09;;;;;;;2.80;2.50;;;24.20;54.90;;;;;;4991683;28;20382;-66
2022/07/17 09:06:36;;;;;;;2.67;2.25;;;24.20;55.00;;;;;;4991373;28;20395;-65
2022/07/17 09:09:13;;;;;;;2.75;2.30;;;24.20;54.90;;;;;;4991561;28;20450;-65
2022/07/17 09:11:52;;;;;;;2.47;2.20;;;24.20;54.90;;;;;;4991245;28;20496;-67
2022/07/17 09:14:20;;;;;;;2.70;2.50;;;24.20;54.90;;;;;;4989882;28;20391;-66
2022/07/17 09:16:55;;;;;;;2.72;2.42;;;24.20;55.00;;;;;;4991622;28;20469;-66
2022/07/17 09:19:25;;;;;;;2.70;2.50;;;24.20;54.80;;;;;;4996345;28;20410;-67
2022/07/17 09:21:51;;;;;;;2.72;2.53;;;24.20;54.90;;;;;;4995281;28;20399;-66
2022/07/17 09:24:17;;;;;;;2.50;2.30;;;24.20;54.90;;;;;;4992776;28;20413;-66
2022/07/17 09:26:45;;;;;;;3.42;2.58;;;24.20;54.70;;;;;;4995315;28;20492;-65
2022/07/17 09:29:14;;;;;;;3.80;2.50;;;24.20;54.70;;;;;;4993924;28;20435;-68
2022/07/17 09:31:40;;;;;;;4.20;2.60;;;24.20;55.10;;;;;;4994997;28;20395;-65
2022/07/17 09:34:16;;;;;;;5.30;4.40;;;24.30;56.30;;;;;;4995162;28;20386;-65
2022/07/17 09:36:42;;;;;;;5.03;3.08;;;24.40;56.70;;;;;;4994861;28;20393;-65
2022/07/17 09:39:08;;;;;;;4.53;3.30;;;24.50;56.40;;;;;;4995026;28;20473;-65
2022/07/17 09:41:34;;;;;;;4.97;3.10;;;24.60;56.50;;;;;;4993609;28;20433;-66
2022/07/17 09:44:01;;;;;;;3.90;2.90;;;24.80;55.30;;;;;;4994924;28;20887;-65
2022/07/17 09:46:30;;;;;;;4.32;2.83;;;24.70;54.90;;;;;;4994444;28;20395;-66
2022/07/17 09:48:58;;;;;;;2.88;2.58;;;24.70;54.70;;;;;;4993699;28;20441;-66
2022/07/17 09:51:30;;;;;;;3.85;2.60;;;24.70;54.60;;;;;;4993476;28;20401;-66
2022/07/17 09:53:58;;;;;;;3.05;2.63;;;24.70;54.50;;;;;;4993521;28;20734;-65
2022/07/17 09:56:26;;;;;;;3.22;2.55;;;24.70;54.50;;;;;;4994456;28;20559;-66
2022/07/17 09:58:54;;;;;;;3.53;2.70;;;24.70;54.50;;;;;;4994761;28;20433;-65
2022/07/17 10:01:20;;;;;;;4.03;2.90;;;24.70;54.50;;;;;;4994572;28;20442;-66
2022/07/17 10:03:48;;;;;;;3.17;2.63;;;24.70;54.50;;;;;;4994442;28;20390;-65
2022/07/17 10:06:15;;;;;;;2.80;2.60;;;24.70;54.30;;;;;;4994304;28;20899;-66
2022/07/17 10:08:41;;;;;;;3.88;2.70;;;24.70;54.30;;;;;;4994185;28;20391;-65
2022/07/17 10:11:08;;;;;;;2.78;2.50;;;24.70;54.40;;;;;;4993502;28;20528;-71
2022/07/17 10:13:39;;;;;;;2.97;2.67;;;24.70;54.40;;;;;;4993915;28;20883;-66
2022/07/17 10:16:06;;;;;;;2.83;2.53;;;24.70;54.30;;;;;;4992262;28;20441;-66
2022/07/17 10:18:43;;;;;;;4.80;2.67;;;24.70;54.30;;;;;;4993848;28;20456;-64
2022/07/17 10:21:09;;;;;;;3.90;2.70;;;24.70;54.40;;;;;;4994442;28;20951;-68
2022/07/17 10:23:35;;;;;;;3.30;2.95;;;24.80;54.90;;;;;;4993177;28;20478;-64
2022/07/17 10:26:01;;;;;;;4.53;2.70;;;24.80;55.90;;;;;;4994202;28;20438;-67
2022/07/17 10:28:45;;;;;;;3.92;2.80;;;24.80;55.10;;;;;;4993697;28;20761;-64
2022/07/17 10:31:23;;;;;;;3.97;2.75;;;24.80;54.80;;;;;;4992944;28;20411;-65
2022/07/17 10:33:56;;;;;;;3.72;2.92;;;24.80;54.70;;;;;;4994315;28;20387;-64
2022/07/17 10:36:36;;;;;;;4.75;2.70;;;24.80;54.60;;;;;;4993394;28;20405;-64
2022/07/17 10:39:17;;;;;;;4.82;2.83;;;24.80;54.40;;;;;;4992775;28;20403;-64
2022/07/17 10:41:54;;;;;;;7.10;3.08;;;24.80;54.50;;;;;;4992798;28;20398;-64
2022/07/17 10:44:31;;;;;;;7.10;2.80;;;24.80;54.40;;;;;;4991570;28;20916;-64
2022/07/17 10:46:58;;;;;;;5.90;2.85;;;24.90;54.30;;;;;;4988594;28;20449;-65
2022/07/17 10:49:24;;;;;;;7.57;2.85;;;24.90;54.30;;;;;;4991087;28;20403;-66
2022/07/17 10:51:50;;;;;;;7.47;3.20;;;24.90;54.20;;;;;;4992498;28;20449;-66
2022/07/17 10:54:18;;;;;;;5.65;2.83;;;24.90;54.30;;;;;;4992554;28;20395;-64
2022/07/17 10:56:44;;;;;;;5.15;2.60;;;24.90;54.30;;;;;;4991058;28;20407;-64
2022/07/17 10:59:28;;;;;;;7.30;3.10;;;24.90;54.20;;;;;;4986431;28;20399;-68
2022/07/17 11:01:59;;;;;;;4.57;2.97;;;24.90;54.20;;;;;;4991601;28;20510;-64
2022/07/17 11:04:35;;;;;;;6.88;3.08;;;24.90;54.30;;;;;;4988257;28;20406;-65
2022/07/17 11:07:18;;;;;;;6.45;2.90;;;25.00;54.30;;;;;;4987785;28;20411;-64
2022/07/17 11:09:48;;;;;;;5.27;2.80;;;25.00;54.20;;;;;;4990348;28;20527;-69
2022/07/17 11:12:16;;;;;;;5.75;2.90;;;24.90;54.20;;;;;;4987360;28;20386;-65
2022/07/17 11:14:42;;;;;;;4.57;3.00;;;25.00;53.90;;;;;;4974169;28;20501;-65
2022/07/17 11:17:08;;;;;;;5.10;2.50;;;25.00;54.10;;;;;;4991102;28;20486;-64
2022/07/17 11:19:42;;;;;;;3.40;2.63;;;25.00;54.10;;;;;;4989561;28;20406;-64
2022/07/17 11:22:12;;;;;;;3.78;2.50;;;25.00;53.90;;;;;;4988467;28;20398;-68
2022/07/17 11:24:42;;;;;;;3.47;2.60;;;25.00;53.80;;;;;;4989530;28;20481;-67
2022/07/17 11:27:22;;;;;;;4.07;2.67;;;25.00;53.80;;;;;;4988080;28;20402;-65
2022/07/17 11:29:50;;;;;;;4.15;2.80;;;25.00;53.90;;;;;;4988857;28;20488;-64
2022/07/17 11:32:15;;;;;;;5.97;2.50;;;25.00;53.90;;;;;;4990979;28;20963;-64
2022/07/17 11:34:41;;;;;;;3.00;2.20;;;25.00;53.90;;;;;;4990856;28;20402;-65
2022/07/17 11:37:09;;;;;;;3.85;2.40;;;25.00;53.90;;;;;;4989474;28;20490;-64
2022/07/17 11:39:39;;;;;;;3.80;2.50;;;25.00;53.90;;;;;;4991041;28;20424;-65
2022/07/17 11:42:11;;;;;;;4.45;2.40;;;25.00;53.80;;;;;;4989235;28;20390;-65
2022/07/17 11:44:37;;;;;;;5.60;2.55;;;25.00;53.80;;;;;;4990617;28;20398;-64
2022/07/17 11:47:04;;;;;;;4.10;2.57;;;25.00;53.70;;;;;;4990428;28;20460;-66
2022/07/17 11:49:35;;;;;;;5.20;2.90;;;25.00;53.70;;;;;;4988734;28;20406;-66
2022/07/17 11:52:27;;;;;;;4.60;2.60;;;25.00;54.20;;;;;;4990190;28;20411;-66
2022/07/17 11:54:54;;;;;;;5.13;2.60;;;25.00;54.10;;;;;;4988441;28;20387;-65
2022/07/17 11:57:21;;;;;;;5.18;2.72;;;25.10;53.60;;;;;;4989489;28;20415;-65
2022/07/17 11:59:48;;;;;;;4.53;2.85;;;25.10;53.70;;;;;;4987573;28;20398;-65
2022/07/17 12:02:22;;;;;;;5.03;2.95;;;25.10;53.40;;;;;;4990699;28;20406;-65
2022/07/17 12:04:59;;;;;;;4.57;2.95;;;25.10;53.10;;;;;;4987162;28;20394;-66
2022/07/17 12:07:40;;;;;;;3.88;2.90;;;25.10;53.00;;;;;;4990364;28;20782;-66
2022/07/17 12:10:16;;;;;;;3.95;2.97;;;25.10;52.80;;;;;;4986279;28;20491;-64
2022/07/17 12:13:04;;;;;;;3.60;2.80;;;25.10;52.80;;;;;;4990784;28;20989;-66
2022/07/17 12:15:44;;;;;;;3.53;2.70;;;25.20;52.60;;;;;;4988150;28;20378;-66
2022/07/17 12:18:25;;;;;;;4.72;3.20;;;25.20;52.40;;;;;;4986676;28;20402;-65
2022/07/17 12:20:52;;;;;;;3.90;3.20;;;25.20;52.60;;;;;;4988013;28;20485;-69
2022/07/17 12:23:31;;;;;;;3.88;3.00;;;25.20;52.50;;;;;;4989187;28;20405;-65
2022/07/17 12:26:07;;;;;;;5.72;3.13;;;25.20;52.20;;;;;;4988871;28;20406;-65
2022/07/17 12:28:35;;;;;;;4.28;3.05;;;25.20;52.10;;;;;;4987904;28;20430;-67
2022/07/17 12:31:01;;;;;;;4.85;3.17;;;25.20;52.00;;;;;;4989697;28;20509;-65
2022/07/17 12:33:26;;;;;;;3.78;3.05;;;25.20;52.90;;;;;;4990219;28;20473;-65
2022/07/17 12:35:52;;;;;;;3.70;3.10;;;25.20;52.10;;;;;;4989149;28;20426;-66
2022/07/17 12:38:18;;;;;;;4.30;3.30;;;25.20;52.10;;;;;;4989049;28;20406;-65
2022/07/17 12:40:44;;;;;;;4.57;3.03;;;25.30;52.10;;;;;;4989920;28;20493;-66
2022/07/17 12:43:09;;;;;;;3.90;3.00;;;25.30;52.50;;;;;;4987682;28;20873;-66
2022/07/17 12:45:35;;;;;;;5.27;3.03;;;25.30;52.30;;;;;;4987889;28;20738;-65
2022/07/17 12:48:01;;;;;;;4.90;3.30;;;25.30;52.00;;;;;;4989113;28;20402;-65
2022/07/17 12:50:27;;;;;;;4.88;3.47;;;25.30;52.30;;;;;;4989895;28;20423;-65